Dia Oficial

Diário Oficial do Estado do Ceará · 20/10/2025 · pág. 46

DOE 20/10/2025 - Diario Oficial do Estado do Ceara - Caderno 2

Baixar página em PDF · Criar alerta deste tema

O visualizador interativo precisa de JavaScript — baixe a página original em PDF.

TEXTO OFICIAL · ÍNTEGRA

106 DIÁRIO OFICIAL DO ESTADO | SÉRIE 3 | ANO XVII Nº198 | FORTALEZA, 20 DE OUTUBRO DE 2025

Eusébio de Queiroz, nº 101, Parnamirim – Eusébio/Ce; VI - FUNDAMENTAÇÃO LEGAL: Art. 71 da Lei Federal nº 13.303/16; VII- FORO: Comarca de Fortaleza/CE; VIII – OBJETO: prorrogação do prazo de vigência por mais 09 (nove) meses, contados de 21 de março de 2026 a 20 de dezembro de 2026 e o prazo de execução por mais 12 (doze) meses contados de 21 de dezembro de 2025 a 20 de dezembro de 2026; IX - VALOR GLOBAL: R$2.991.881,96 (dois milhões novecentos e noventa e um mil oitocentos e oitenta e um reais e noventa e seis centavos); X - DA VIGÊNCIA: Até 20 de dezembro de 2026; XI - DA RATIFICAÇÃO: Continuam inalteradas as demais Cláusulas do Contrato n° 60/METROFOR/2021 que não conflitarem com as existentes no presente instrumento, ressalvado o direito da Contratada ao reajustamento previsto na Cláusula Quinta do instrumento de contrato; XII - DATA: 15 de outubro de 2025; XIII – SIGNATÁRIOS: Plínio Pompeu de Saboya Magalhães Neto e José Tupinambá Cavalcante de Almeida pelo METROFOR e Carlos Eduardo Souza da Silva Rabelo pela empresa MARACANÃS VIAGENS E TURISMO LTDA - ME.

Luis Otávio Franco Martins ASSESSOR JURÍDICO

SECRETARIA DA IGUALDADE RACIAL

CORRIGENDA

No Diário Oficial nº 194, Série 3, Ano XVII, de 14 de outubro de 2025, que publicou a EXONERAÇÃO DO SERVIDOR ANDRE LUIS MONTEIRO GOMES. Onde se lê : “a partir de 10 de Outubro de 2925”. Leia-se : “a partir de 10 de Outubro de 2025”. SECRETARIA DA IGUALDADE RACIAL, em Fortaleza-CE, 16 de outubro de 2025.

Thamira Reis Santana Neves

COORDENADORA JURÍDICA

SECRETARIA DO MEIO AMBIENTE E MUDANÇA DO CLIMA

SUPERINTENDÊNCIA ESTADUAL DO MEIO AMBIENTE

PORTARIA Nº100/2025 - O SUPERINTENDENTE DA SUPERINTENDÊNCIA ESTADUAL DO MEIO AMBIENTE, no uso das atribuições legais, RESOLVE AUTORIZAR os SERVIDORES relacionados no Anexo único desta Portaria, a viajarem em objeto de serviço, com a finalidade de realizarem Inspeções Técnicas, Reuniões, Audiências Públicas e outros, concedendo-lhes diárias, de acordo com o artigo 1º; alínea II § 2º do art.4º; e art. 16, classe II do anexo I do Decreto nº35.922, de 27 de março de 2024, e Portaria nº143/2025, de 18 de fevereiro de 2025, devendo a despesa correr à conta da dotação orçamentária da SEMACE. SUPERINTENDÊNCIA ESTADUAL DO MEIO AMBIENTE, em Fortaleza, 01 de setembro de 2025. João Gabriel Laprovitera Rocha

SUPERINTENDENTE

ANEXO ÚNICO A QUE SE REFERE A PORTARIA Nº100/2025

NOME CARGO/FUNÇÃO MATRÍCULA CLASSE PERÍODO ROTEIRO DIÁRIAS
QUANT. VALOR TOTAL
Francisco Leorne de S. Cavalcante Gestor Ambiental 000542-1-6 II 01 a 02.09.2025 Itarema 1.5 137,78 206,67
Patrícia de Menezes Gondim Gestor Ambiental 000559-1-3 II 01 a 03.09.2025 Tabuleiro do Norte/Quixeré 2.5 137,78 344,45
Lincoln Davi M. de Oliveira Gestor Ambiental 000551-1-5 II 02 a 03.09.2025 Jijoca de Jericoacoara 1.5 137,78 206,67
Antônio Ferreira Figueiredo Eng. Civil 000091-1-3 II 02 a 04.09.2025 Sobral/Massapê 2.5 137,78 344,45
Marcelo Almeida Soares DNS-3 300003-74 II 02 a 04.09.2025 Sobral/Massapê 2.5 137,78 344,45
Alan Fábio Freitas Mendes Fiscal Ambiental 000656-1-7 II 02 a 04.09.2025 Banabuiú/Quixadá 2.5 137,78 344,45
Marcelo Borges Soares Fiscal Ambiental 000558-1-6 II 02 a 04.09.2025 Banabuiú/Quixadá 2.5 137,78 344,45
Liliana Ma. Mota de Oliveira Fiscal Ambiental 000575-1-7 II 02 a 04.09.2025 Arneiroz/Tauá 2.5 137,78 344,45
Rodrigo de Oliveira Girão Fiscal Ambiental 000623-1-6 II 02 a 04.09.2025 Arneiroz/Tauá 2.5 137,78 344,45
Doris Day Santos da Silva Gestor Ambiental 000532-1-X II 03 a 04.09.2025 Russas/Morada Nova 1.5 137,78 206,67
José Eimard M. da Cruz Motorista 000375-1-6 II 03 a 05.09.2025 Camocim/Chaval 2.5 137,78 344,45
Fábio Erick de Oliveira Paula Fiscal Ambiental 300010-2-8 II 04 a 05.09.2025 Cariús/Jucás 1.5 137,78 206,67
Fernanda Gabryela B. De Araújo Fiscal Ambiental 300010-3-6 II 04 a 05.09.2025 Aracati/Quixeré 1.5 137,78 206,67
Manuella Ferreira Vidal Fiscal Ambiental 300010-4-4 II 04 a 05.09.2025 Aracati/Quixeré 1.5 137,78 206,67
Carlos Eduardo Linhares Feitosa DNS-3 300005-2-8 II 04 a 05.09.2025 Aracati/Quixeré 1.5 137,78 206,67
Mateus Lima Cajado Gestor Ambiental 300010-6-0 II 04 a 05.09.2025 Varjota/São Benedito 1.5 137,78 206,67
Ademar Almeida de Sousa Gestor Ambiental 300037-1-3 II 04 a 05.09.2025 Ubajara/Tianguá 1.5 137,78 206,67
Adirson Freitas dos Reis Junior DNS-2 300001-4-5 II 04 a 05.09.2025 Sta. Quitéria/Canindé 1.5 137,78 206,67
Felipe de Almeida Rodrigues Fiscal Ambiental 300011-0-9 II 04 a 05.09.2025 Sta. Quitéria/Canindé 1.5 137,78 206,67
Camila Paula César Maia Gestor Ambiental 000641-1-4 II 04 a 05.09.2025 Pedra Branca/Boa Viagem 1.5 137,78 206,67
Anderson Lima dos Santos Fiscal Ambiental 000653-1-5 II 04 a 05.09.2025 Araripe/Tauá 1.5 137,78 206,67
Francisco Leorne de S. Cavalcante Gestor Ambiental 000542-1-6 II 08 a 09.09.2025 Canindé 1.5 137,78 206,67
José Eimard M. da Cruz Motorista 000375-1-6 II 08 a 09.09.2025 Icapuí/Fortim 1.5 137,78 206,67
Fernando Erico Yves da Silva DNS-3 300002-7-7 II 08 a 09.09.2025 Crateús/Ararendá 4.5 137,78 620,01
Italo Taeno Abreu DNS-3 300003-2-3 II 08 a 12.09.2025 Crateús/Ararendá 4.5 137,78 620,01
Sângela Ramos de Souza Fiscal Ambiental 000669-1-5 II 08 a 12.09.2025 Camocim/Granja/Cruz 4.5 137,78 620,01

Thiago Russel Miguel Santos
Fiscal Ambiental 000601-1-9 II 08 a 12.09.2025 Camocim/Granja/Cruz 4.5 137,78 620,01
Antônio Ferreira Figueiredo Eng. Civil 000091-1-3 II 09 a 10.09.2025 Guaramiranga/Aratuba 1.5 137,78 206,67
Danylo de Andrade Lima DNS-3 300008-7-0 II 09 a 10.09.2025 Guaramiranga/Aratuba 1.5 137,78 206,67
Jorge Adriano M. Simões Filho Gestor Ambiental 000608-1—X II 10 a 11.09.2025 Fortim/Beberibe 1.5 137,78 206,67
José Eimard M. da Cruz Motorista 000375-1-6 II 10 a 12.09.2025 Hidrolândia/Crateús 2.5 137,78 344,45
José Meneses Junior Eng. Agrônomo 000110-1-0 II 10 a 12.09.2025 Morada Nova/Quixeramobim 2.5 137,78 344,45
Manuella Ferreira Vidal Fiscal Ambiental 300010-4-4 II 11.09.2025 Fortim/Aracati 1/2 137,78 68,89
Doris day Santos da Silva Gestor Ambiental 000532-1-X II 11.09.2025 Fortim/Aracati 1/2 137,78 68,89
Mateus Lima Cajado Gestor Ambiental 300010-6-0 II 11.09.2025 Fortim/Aracati 1/2 137,78 68,89
Mateus Fernandes da Silva Xavier Fiscal Ambiental 300010-5-2 II 11.09.2025 Fortim/Aracati 1/2 137,78 68,89
Ana Flávia da C. Cavalcante Fiscal Ambiental 300010-0-1 II 11.09.2025 Fortim/Aracati 1/2 137,78 68,89
Alyce Helida Bastos de Sousa Gestor Ambiental 300009-9-4 II 11.09.2025 Fortim/Aracati 1/2 137,78 68,89
Fernanda Gabryela B. De Araújo Fiscal Ambiental 300010-3-6 II 11.09.2025 Fortim/Aracati 1/2 137,78 68,89
Fábio Erick de Oliveira Paula Fiscal Ambiental 300010-2-8 II 11.09.2025 Fortim/Aracati 1/2 137,78 68,89
Ma. Eulália Costa Araújo Gestor Ambiental 300036-1-6 II 11 a 12.09.2025 Marco 1.5 137,78 206,67
Patrícia de Menezes Gondim Gestor Ambiental 000559-1-3 II 11 a 12.09.2025 Marco 1.5 137,78 206,67
Eugênio da Silva Oliveira Fiscal Ambiental 000529-1-4 II 11 a 12.09.2025 Potengi/Crato 1.5 137,78 206,67
Petrônio Silva de Oliveira Gestor Ambiental 000553-1-X II 11 a 12.09.2025 Tauá/Arneiroz 1.5 137,78 206,67
Anderson Lima dos Santos Fiscal Ambiental 000653-1-5 II 14 a 20.09.2025 Crato/Fortaleza 6.5 13778 x 35% 1.20902

Cícera Luiza de C. Vasconcelos

DAS-1
300008-97 II
14 a 20.09.2025
Crato/Fortaleza 6.5 ,
137,78 x 35%
,
1.209,02
Fernanda Fernandes de S. Lima Gestor Ambiental 000555-1-4 II 14 a 20.09.2025 Crato/Fortaleza 6.5 137,78 x 35% 1.209,02
Ana Paula Silva de Oliveira DNS-3 300001-6-1 II 15 a 19.09.2025 Assaré/Nova Olinda 4.5 137,78 620,01
Danylo de Andrade Lima DNS-3 300008-7-0 II 15 a 19.09.2025 Assaré/Nova Olinda 4.5 137,78 620,01
Rodrigo de Oliveira Girão Fiscal Ambiental 000623-1-6 II 16 a 18.09.2025 Guaramiranga/Mulungu 2.5 137,78 344,45
Arlete Silva de Oliveira Fiscal Ambiental 000655-1-X II 16 a 18.09.2025 Guaramiranga/Mulungu 2.5 137,78 344,45
Alan Fábio Freitas Mendes Fiscal Ambiental 000656-1-7 II 16 a 18.09.2025 Guaramiranga/Mulungu 2.5 137,78 344,45
Mayco Angello F. De Sena Silva Fiscal Ambiental 000597-1-4 II 16 a 18.09.2025 Guaramiranga/Mulungu 2.5 137,78 344,45